sensor_id;sensor_type;location;lat;lon;timestamp;P1;durP1;ratioP1;P2;durP2;ratioP2
27375;SDS011;14844;51.302;6.354;2022-07-24T01:11:26;13.57;;;9.05;;
27375;SDS011;14844;51.302;6.354;2022-07-24T01:36:05;10.25;;;9.15;;
27375;SDS011;14844;51.302;6.354;2022-07-24T01:39:59;11.45;;;9.63;;
27375;SDS011;14844;51.302;6.354;2022-07-24T01:49:29;15.15;;;9.95;;
27375;SDS011;14844;51.302;6.354;2022-07-24T01:55:32;10.98;;;9.18;;
27375;SDS011;14844;51.302;6.354;2022-07-24T01:58:20;14.15;;;9.80;;
27375;SDS011;14844;51.302;6.354;2022-07-24T02:01:13;11.82;;;9.30;;
27375;SDS011;14844;51.302;6.354;2022-07-24T02:04:02;12.73;;;9.70;;
27375;SDS011;14844;51.302;6.354;2022-07-24T02:06:50;11.20;;;9.68;;
27375;SDS011;14844;51.302;6.354;2022-07-24T02:12:51;11.32;;;9.50;;
27375;SDS011;14844;51.302;6.354;2022-07-24T02:18:57;11.70;;;9.60;;
27375;SDS011;14844;51.302;6.354;2022-07-24T02:21:40;11.10;;;9.15;;
27375;SDS011;14844;51.302;6.354;2022-07-24T02:25:07;12.45;;;9.80;;
27375;SDS011;14844;51.302;6.354;2022-07-24T02:35:32;12.38;;;10.05;;
27375;SDS011;14844;51.302;6.354;2022-07-24T02:41:39;12.98;;;10.20;;
27375;SDS011;14844;51.302;6.354;2022-07-24T02:51:53;12.13;;;9.90;;
27375;SDS011;14844;51.302;6.354;2022-07-24T02:54:46;12.73;;;9.98;;
27375;SDS011;14844;51.302;6.354;2022-07-24T02:57:43;12.57;;;9.80;;
27375;SDS011;14844;51.302;6.354;2022-07-24T03:00:22;15.23;;;9.60;;
27375;SDS011;14844;51.302;6.354;2022-07-24T03:07:01;13.32;;;10.00;;
27375;SDS011;14844;51.302;6.354;2022-07-24T03:10:08;11.65;;;9.13;;
27375;SDS011;14844;51.302;6.354;2022-07-24T03:12:51;16.90;;;10.02;;
27375;SDS011;14844;51.302;6.354;2022-07-24T03:15:51;12.18;;;9.77;;
27375;SDS011;14844;51.302;6.354;2022-07-24T03:19:07;14.73;;;10.38;;
27375;SDS011;14844;51.302;6.354;2022-07-24T03:25:17;11.40;;;9.15;;
27375;SDS011;14844;51.302;6.354;2022-07-24T03:31:46;15.30;;;10.02;;
27375;SDS011;14844;51.302;6.354;2022-07-24T03:34:45;14.20;;;10.32;;
27375;SDS011;14844;51.302;6.354;2022-07-24T03:40:54;12.63;;;9.80;;
27375;SDS011;14844;51.302;6.354;2022-07-24T03:43:46;16.02;;;9.70;;
27375;SDS011;14844;51.302;6.354;2022-07-24T03:46:43;13.23;;;9.85;;
27375;SDS011;14844;51.302;6.354;2022-07-24T03:49:36;14.43;;;10.38;;
27375;SDS011;14844;51.302;6.354;2022-07-24T03:52:08;14.48;;;10.15;;
27375;SDS011;14844;51.302;6.354;2022-07-24T03:54:49;14.73;;;9.70;;
27375;SDS011;14844;51.302;6.354;2022-07-24T03:57:26;13.80;;;10.50;;
27375;SDS011;14844;51.302;6.354;2022-07-24T04:00:04;15.38;;;10.40;;
27375;SDS011;14844;51.302;6.354;2022-07-24T04:02:33;17.17;;;10.50;;
27375;SDS011;14844;51.302;6.354;2022-07-24T04:05:09;15.50;;;11.68;;
27375;SDS011;14844;51.302;6.354;2022-07-24T04:07:56;14.02;;;11.55;;
27375;SDS011;14844;51.302;6.354;2022-07-24T04:11:00;16.60;;;10.80;;
27375;SDS011;14844;51.302;6.354;2022-07-24T04:16:22;16.23;;;11.23;;
27375;SDS011;14844;51.302;6.354;2022-07-24T04:18:47;15.98;;;11.07;;
27375;SDS011;14844;51.302;6.354;2022-07-24T04:21:13;14.75;;;10.35;;
27375;SDS011;14844;51.302;6.354;2022-07-24T04:23:39;13.30;;;10.85;;
27375;SDS011;14844;51.302;6.354;2022-07-24T04:26:04;15.68;;;9.88;;
27375;SDS011;14844;51.302;6.354;2022-07-24T04:28:30;15.82;;;9.85;;
27375;SDS011;14844;51.302;6.354;2022-07-24T04:30:56;16.42;;;10.20;;
27375;SDS011;14844;51.302;6.354;2022-07-24T04:33:21;12.50;;;9.70;;
27375;SDS011;14844;51.302;6.354;2022-07-24T04:35:47;14.23;;;9.70;;
27375;SDS011;14844;51.302;6.354;2022-07-24T04:38:13;13.55;;;9.35;;
27375;SDS011;14844;51.302;6.354;2022-07-24T04:40:39;13.88;;;9.50;;
27375;SDS011;14844;51.302;6.354;2022-07-24T04:43:05;12.05;;;8.88;;
27375;SDS011;14844;51.302;6.354;2022-07-24T04:45:31;11.45;;;8.88;;
27375;SDS011;14844;51.302;6.354;2022-07-24T04:47:57;11.07;;;8.80;;
27375;SDS011;14844;51.302;6.354;2022-07-24T04:50:22;11.02;;;8.57;;
27375;SDS011;14844;51.302;6.354;2022-07-24T04:52:48;12.77;;;8.50;;
27375;SDS011;14844;51.302;6.354;2022-07-24T04:55:14;12.63;;;8.77;;
27375;SDS011;14844;51.302;6.354;2022-07-24T04:57:39;14.57;;;8.07;;
27375;SDS011;14844;51.302;6.354;2022-07-24T05:00:07;11.10;;;7.85;;
27375;SDS011;14844;51.302;6.354;2022-07-24T05:02:34;14.80;;;7.93;;
27375;SDS011;14844;51.302;6.354;2022-07-24T05:05:00;14.52;;;7.30;;
27375;SDS011;14844;51.302;6.354;2022-07-24T05:07:25;11.48;;;7.35;;
27375;SDS011;14844;51.302;6.354;2022-07-24T05:09:51;15.68;;;7.20;;
27375;SDS011;14844;51.302;6.354;2022-07-24T05:12:17;12.52;;;7.07;;
27375;SDS011;14844;51.302;6.354;2022-07-24T05:14:42;12.13;;;7.97;;
27375;SDS011;14844;51.302;6.354;2022-07-24T05:17:08;11.45;;;7.18;;
27375;SDS011;14844;51.302;6.354;2022-07-24T05:19:34;11.80;;;7.85;;
27375;SDS011;14844;51.302;6.354;2022-07-24T05:21:59;10.30;;;7.40;;
27375;SDS011;14844;51.302;6.354;2022-07-24T05:24:25;15.02;;;7.40;;
27375;SDS011;14844;51.302;6.354;2022-07-24T05:26:51;13.95;;;7.22;;
27375;SDS011;14844;51.302;6.354;2022-07-24T05:29:16;13.60;;;7.43;;
27375;SDS011;14844;51.302;6.354;2022-07-24T05:31:42;16.10;;;7.85;;
27375;SDS011;14844;51.302;6.354;2022-07-24T05:34:08;10.98;;;7.47;;
27375;SDS011;14844;51.302;6.354;2022-07-24T05:36:34;13.45;;;8.00;;
27375;SDS011;14844;51.302;6.354;2022-07-24T05:39:00;12.10;;;8.15;;
27375;SDS011;14844;51.302;6.354;2022-07-24T05:41:26;12.25;;;8.10;;
27375;SDS011;14844;51.302;6.354;2022-07-24T05:43:51;15.10;;;8.93;;
27375;SDS011;14844;51.302;6.354;2022-07-24T05:46:18;13.63;;;8.15;;
27375;SDS011;14844;51.302;6.354;2022-07-24T05:48:44;10.45;;;8.32;;
27375;SDS011;14844;51.302;6.354;2022-07-24T05:51:18;16.27;;;8.63;;
27375;SDS011;14844;51.302;6.354;2022-07-24T05:53:44;12.20;;;8.95;;
27375;SDS011;14844;51.302;6.354;2022-07-24T05:56:10;14.38;;;9.45;;
27375;SDS011;14844;51.302;6.354;2022-07-24T05:58:35;17.40;;;10.60;;
27375;SDS011;14844;51.302;6.354;2022-07-24T06:01:01;17.15;;;9.85;;
27375;SDS011;14844;51.302;6.354;2022-07-24T06:03:27;13.35;;;10.07;;
27375;SDS011;14844;51.302;6.354;2022-07-24T06:05:52;16.25;;;11.45;;
27375;SDS011;14844;51.302;6.354;2022-07-24T06:08:18;19.60;;;11.65;;
27375;SDS011;14844;51.302;6.354;2022-07-24T06:10:44;22.70;;;12.20;;
27375;SDS011;14844;51.302;6.354;2022-07-24T06:13:09;17.80;;;12.73;;
27375;SDS011;14844;51.302;6.354;2022-07-24T06:15:35;20.65;;;13.25;;
27375;SDS011;14844;51.302;6.354;2022-07-24T06:18:01;19.70;;;13.82;;
27375;SDS011;14844;51.302;6.354;2022-07-24T06:20:27;20.35;;;14.60;;
27375;SDS011;14844;51.302;6.354;2022-07-24T06:22:53;21.85;;;13.75;;
27375;SDS011;14844;51.302;6.354;2022-07-24T06:25:18;21.42;;;14.77;;
27375;SDS011;14844;51.302;6.354;2022-07-24T06:27:45;21.70;;;14.25;;
27375;SDS011;14844;51.302;6.354;2022-07-24T06:30:17;23.05;;;14.75;;
27375;SDS011;14844;51.302;6.354;2022-07-24T06:32:48;22.25;;;16.17;;
27375;SDS011;14844;51.302;6.354;2022-07-24T06:35:16;21.65;;;15.82;;
27375;SDS011;14844;51.302;6.354;2022-07-24T06:37:45;21.55;;;17.15;;
27375;SDS011;14844;51.302;6.354;2022-07-24T06:40:14;26.92;;;16.40;;
27375;SDS011;14844;51.302;6.354;2022-07-24T06:42:41;21.55;;;15.55;;
27375;SDS011;14844;51.302;6.354;2022-07-24T06:45:07;22.77;;;15.85;;
27375;SDS011;14844;51.302;6.354;2022-07-24T06:47:33;24.20;;;16.50;;
27375;SDS011;14844;51.302;6.354;2022-07-24T06:49:59;25.38;;;16.10;;
27375;SDS011;14844;51.302;6.354;2022-07-24T06:52:24;25.42;;;16.48;;
27375;SDS011;14844;51.302;6.354;2022-07-24T06:54:50;24.63;;;15.98;;
27375;SDS011;14844;51.302;6.354;2022-07-24T06:57:16;21.85;;;15.40;;
27375;SDS011;14844;51.302;6.354;2022-07-24T06:59:43;25.23;;;16.08;;
27375;SDS011;14844;51.302;6.354;2022-07-24T07:02:08;24.88;;;15.70;;
27375;SDS011;14844;51.302;6.354;2022-07-24T07:04:34;24.42;;;16.42;;
27375;SDS011;14844;51.302;6.354;2022-07-24T07:07:00;26.77;;;17.48;;
27375;SDS011;14844;51.302;6.354;2022-07-24T07:09:26;24.63;;;17.00;;
27375;SDS011;14844;51.302;6.354;2022-07-24T07:11:51;26.83;;;17.35;;
27375;SDS011;14844;51.302;6.354;2022-07-24T07:14:18;27.83;;;17.60;;
27375;SDS011;14844;51.302;6.354;2022-07-24T07:16:44;28.15;;;17.80;;
27375;SDS011;14844;51.302;6.354;2022-07-24T07:19:10;25.98;;;17.23;;
27375;SDS011;14844;51.302;6.354;2022-07-24T07:21:35;24.98;;;17.73;;
27375;SDS011;14844;51.302;6.354;2022-07-24T07:24:04;26.15;;;18.05;;
27375;SDS011;14844;51.302;6.354;2022-07-24T07:26:30;26.92;;;18.17;;
27375;SDS011;14844;51.302;6.354;2022-07-24T07:28:55;26.42;;;18.85;;
27375;SDS011;14844;51.302;6.354;2022-07-24T07:31:21;24.77;;;17.95;;
27375;SDS011;14844;51.302;6.354;2022-07-24T07:33:49;24.67;;;17.65;;
27375;SDS011;14844;51.302;6.354;2022-07-24T07:36:15;28.52;;;18.00;;
27375;SDS011;14844;51.302;6.354;2022-07-24T07:38:42;28.83;;;18.05;;
27375;SDS011;14844;51.302;6.354;2022-07-24T07:41:07;24.92;;;17.95;;
27375;SDS011;14844;51.302;6.354;2022-07-24T07:43:33;27.55;;;18.17;;
27375;SDS011;14844;51.302;6.354;2022-07-24T07:45:59;23.98;;;18.05;;
27375;SDS011;14844;51.302;6.354;2022-07-24T07:48:24;29.85;;;17.88;;
27375;SDS011;14844;51.302;6.354;2022-07-24T07:50:50;27.92;;;18.20;;
27375;SDS011;14844;51.302;6.354;2022-07-24T07:53:16;26.52;;;17.10;;
27375;SDS011;14844;51.302;6.354;2022-07-24T07:55:43;28.13;;;18.20;;
27375;SDS011;14844;51.302;6.354;2022-07-24T07:58:09;26.55;;;17.35;;
27375;SDS011;14844;51.302;6.354;2022-07-24T08:00:35;27.75;;;18.40;;
27375;SDS011;14844;51.302;6.354;2022-07-24T08:03:01;25.17;;;17.75;;
27375;SDS011;14844;51.302;6.354;2022-07-24T08:05:28;26.65;;;17.58;;
27375;SDS011;14844;51.302;6.354;2022-07-24T08:07:54;27.35;;;18.02;;
27375;SDS011;14844;51.302;6.354;2022-07-24T08:10:20;24.85;;;17.85;;
27375;SDS011;14844;51.302;6.354;2022-07-24T08:12:47;28.23;;;18.75;;
27375;SDS011;14844;51.302;6.354;2022-07-24T08:15:12;25.55;;;17.65;;
27375;SDS011;14844;51.302;6.354;2022-07-24T08:17:38;24.88;;;16.50;;
27375;SDS011;14844;51.302;6.354;2022-07-24T08:20:04;23.08;;;15.38;;
27375;SDS011;14844;51.302;6.354;2022-07-24T08:22:30;23.42;;;15.32;;
27375;SDS011;14844;51.302;6.354;2022-07-24T08:24:56;27.45;;;17.08;;
27375;SDS011;14844;51.302;6.354;2022-07-24T08:27:21;24.38;;;15.80;;
27375;SDS011;14844;51.302;6.354;2022-07-24T08:29:47;24.33;;;12.80;;
27375;SDS011;14844;51.302;6.354;2022-07-24T08:32:12;18.60;;;14.00;;
27375;SDS011;14844;51.302;6.354;2022-07-24T08:34:38;24.95;;;16.40;;
27375;SDS011;14844;51.302;6.354;2022-07-24T08:37:04;20.80;;;13.07;;
27375;SDS011;14844;51.302;6.354;2022-07-24T08:39:29;21.85;;;13.90;;
27375;SDS011;14844;51.302;6.354;2022-07-24T08:41:56;18.15;;;12.23;;
27375;SDS011;14844;51.302;6.354;2022-07-24T08:44:22;20.98;;;12.90;;
27375;SDS011;14844;51.302;6.354;2022-07-24T08:46:47;17.88;;;11.70;;
27375;SDS011;14844;51.302;6.354;2022-07-24T08:49:14;15.32;;;11.07;;
27375;SDS011;14844;51.302;6.354;2022-07-24T08:51:40;16.30;;;10.30;;
27375;SDS011;14844;51.302;6.354;2022-07-24T08:54:09;16.42;;;8.82;;
27375;SDS011;14844;51.302;6.354;2022-07-24T08:56:41;15.18;;;9.32;;
27375;SDS011;14844;51.302;6.354;2022-07-24T08:59:17;14.63;;;8.75;;
27375;SDS011;14844;51.302;6.354;2022-07-24T09:01:44;10.45;;;7.50;;
27375;SDS011;14844;51.302;6.354;2022-07-24T09:07:00;14.35;;;8.38;;
27375;SDS011;14844;51.302;6.354;2022-07-24T09:09:27;16.38;;;8.73;;
27375;SDS011;14844;51.302;6.354;2022-07-24T09:12:03;14.02;;;8.27;;
27375;SDS011;14844;51.302;6.354;2022-07-24T09:14:38;13.27;;;8.57;;
27375;SDS011;14844;51.302;6.354;2022-07-24T09:17:06;11.30;;;7.28;;
27375;SDS011;14844;51.302;6.354;2022-07-24T09:19:46;12.27;;;7.55;;
27375;SDS011;14844;51.302;6.354;2022-07-24T09:25:02;13.48;;;7.38;;
27375;SDS011;14844;51.302;6.354;2022-07-24T09:27:29;14.40;;;7.03;;
27375;SDS011;14844;51.302;6.354;2022-07-24T09:29:55;9.35;;;6.85;;
27375;SDS011;14844;51.302;6.354;2022-07-24T09:32:24;13.23;;;6.95;;
27375;SDS011;14844;51.302;6.354;2022-07-24T09:34:53;11.30;;;6.50;;
27375;SDS011;14844;51.302;6.354;2022-07-24T09:37:19;11.00;;;6.38;;
27375;SDS011;14844;51.302;6.354;2022-07-24T09:39:45;9.48;;;7.03;;
27375;SDS011;14844;51.302;6.354;2022-07-24T09:42:11;11.27;;;6.10;;
27375;SDS011;14844;51.302;6.354;2022-07-24T09:44:37;15.65;;;6.35;;
27375;SDS011;14844;51.302;6.354;2022-07-24T09:47:04;11.98;;;6.85;;
27375;SDS011;14844;51.302;6.354;2022-07-24T09:49:32;16.90;;;7.00;;
27375;SDS011;14844;51.302;6.354;2022-07-24T09:57:13;9.68;;;6.28;;
27375;SDS011;14844;51.302;6.354;2022-07-24T09:59:49;9.20;;;6.05;;
27375;SDS011;14844;51.302;6.354;2022-07-24T10:02:18;14.82;;;6.78;;
27375;SDS011;14844;51.302;6.354;2022-07-24T10:04:47;8.77;;;6.68;;
27375;SDS011;14844;51.302;6.354;2022-07-24T10:07:15;10.65;;;7.07;;
27375;SDS011;14844;51.302;6.354;2022-07-24T10:09:43;16.73;;;8.07;;
27375;SDS011;14844;51.302;6.354;2022-07-24T10:12:11;18.38;;;9.30;;
27375;SDS011;14844;51.302;6.354;2022-07-24T10:14:41;17.75;;;8.75;;
27375;SDS011;14844;51.302;6.354;2022-07-24T10:17:09;13.50;;;7.95;;
27375;SDS011;14844;51.302;6.354;2022-07-24T10:29:59;16.95;;;8.05;;
27375;SDS011;14844;51.302;6.354;2022-07-24T10:32:30;14.65;;;6.57;;
27375;SDS011;14844;51.302;6.354;2022-07-24T10:35:07;11.82;;;6.93;;
27375;SDS011;14844;51.302;6.354;2022-07-24T10:40:45;18.00;;;6.80;;
27375;SDS011;14844;51.302;6.354;2022-07-24T10:43:17;17.55;;;6.30;;
27375;SDS011;14844;51.302;6.354;2022-07-24T10:59:10;8.88;;;5.05;;
27375;SDS011;14844;51.302;6.354;2022-07-24T11:01:40;8.10;;;4.95;;
27375;SDS011;14844;51.302;6.354;2022-07-24T11:06:43;10.32;;;4.90;;
27375;SDS011;14844;51.302;6.354;2022-07-24T11:09:12;8.88;;;5.20;;
27375;SDS011;14844;51.302;6.354;2022-07-24T11:12:02;10.27;;;4.55;;
27375;SDS011;14844;51.302;6.354;2022-07-24T11:14:25;9.10;;;4.50;;
27375;SDS011;14844;51.302;6.354;2022-07-24T11:17:35;6.38;;;4.28;;
27375;SDS011;14844;51.302;6.354;2022-07-24T11:20:13;7.40;;;4.60;;
27375;SDS011;14844;51.302;6.354;2022-07-24T11:25:14;14.00;;;4.50;;
27375;SDS011;14844;51.302;6.354;2022-07-24T11:27:55;9.57;;;3.95;;
27375;SDS011;14844;51.302;6.354;2022-07-24T11:30:28;8.27;;;4.78;;
27375;SDS011;14844;51.302;6.354;2022-07-24T11:32:55;10.10;;;4.22;;
27375;SDS011;14844;51.302;6.354;2022-07-24T11:35:28;6.78;;;4.18;;
27375;SDS011;14844;51.302;6.354;2022-07-24T11:37:59;8.20;;;4.80;;
27375;SDS011;14844;51.302;6.354;2022-07-24T11:40:27;7.80;;;4.07;;
27375;SDS011;14844;51.302;6.354;2022-07-24T11:42:59;11.18;;;4.05;;
27375;SDS011;14844;51.302;6.354;2022-07-24T11:45:27;7.72;;;4.65;;
27375;SDS011;14844;51.302;6.354;2022-07-24T11:47:52;8.00;;;4.10;;
27375;SDS011;14844;51.302;6.354;2022-07-24T11:50:21;6.22;;;3.90;;
27375;SDS011;14844;51.302;6.354;2022-07-24T11:52:48;7.45;;;3.55;;
27375;SDS011;14844;51.302;6.354;2022-07-24T11:55:15;10.98;;;3.55;;
27375;SDS011;14844;51.302;6.354;2022-07-24T11:57:44;6.55;;;3.15;;
27375;SDS011;14844;51.302;6.354;2022-07-24T12:00:19;6.40;;;3.13;;
27375;SDS011;14844;51.302;6.354;2022-07-24T12:02:52;5.18;;;3.10;;
27375;SDS011;14844;51.302;6.354;2022-07-24T12:07:51;6.82;;;3.60;;
27375;SDS011;14844;51.302;6.354;2022-07-24T12:10:20;6.00;;;3.03;;
27375;SDS011;14844;51.302;6.354;2022-07-24T12:12:47;5.05;;;3.42;;
27375;SDS011;14844;51.302;6.354;2022-07-24T12:15:15;5.72;;;3.58;;
27375;SDS011;14844;51.302;6.354;2022-07-24T12:18:00;7.88;;;3.45;;
27375;SDS011;14844;51.302;6.354;2022-07-24T12:20:29;7.20;;;3.60;;
27375;SDS011;14844;51.302;6.354;2022-07-24T12:22:59;6.72;;;3.25;;
27375;SDS011;14844;51.302;6.354;2022-07-24T12:25:27;5.25;;;3.20;;
27375;SDS011;14844;51.302;6.354;2022-07-24T12:30:50;5.40;;;3.00;;
27375;SDS011;14844;51.302;6.354;2022-07-24T12:33:21;6.18;;;2.90;;
27375;SDS011;14844;51.302;6.354;2022-07-24T12:35:57;10.45;;;3.25;;
27375;SDS011;14844;51.302;6.354;2022-07-24T12:38:42;6.18;;;3.22;;
27375;SDS011;14844;51.302;6.354;2022-07-24T12:41:17;8.77;;;3.70;;
27375;SDS011;14844;51.302;6.354;2022-07-24T12:43:51;6.65;;;3.55;;
27375;SDS011;14844;51.302;6.354;2022-07-24T12:46:19;5.18;;;3.55;;
27375;SDS011;14844;51.302;6.354;2022-07-24T12:48:58;6.15;;;3.50;;
27375;SDS011;14844;51.302;6.354;2022-07-24T12:51:47;8.02;;;3.80;;
27375;SDS011;14844;51.302;6.354;2022-07-24T12:56:56;8.82;;;3.28;;
27375;SDS011;14844;51.302;6.354;2022-07-24T12:59:33;7.97;;;3.38;;
27375;SDS011;14844;51.302;6.354;2022-07-24T13:02:06;9.07;;;3.80;;
27375;SDS011;14844;51.302;6.354;2022-07-24T13:04:47;5.47;;;2.97;;
27375;SDS011;14844;51.302;6.354;2022-07-24T13:07:14;4.60;;;3.08;;
27375;SDS011;14844;51.302;6.354;2022-07-24T13:09:41;4.88;;;3.15;;
27375;SDS011;14844;51.302;6.354;2022-07-24T13:12:08;5.88;;;2.88;;
27375;SDS011;14844;51.302;6.354;2022-07-24T13:14:34;5.10;;;3.08;;
27375;SDS011;14844;51.302;6.354;2022-07-24T13:17:13;7.32;;;3.22;;
27375;SDS011;14844;51.302;6.354;2022-07-24T13:19:40;4.70;;;2.67;;
27375;SDS011;14844;51.302;6.354;2022-07-24T13:22:10;7.45;;;2.80;;
27375;SDS011;14844;51.302;6.354;2022-07-24T13:24:37;4.70;;;2.80;;
27375;SDS011;14844;51.302;6.354;2022-07-24T13:27:11;9.00;;;3.08;;
27375;SDS011;14844;51.302;6.354;2022-07-24T13:29:42;5.80;;;2.83;;
27375;SDS011;14844;51.302;6.354;2022-07-24T13:32:08;7.28;;;3.05;;
27375;SDS011;14844;51.302;6.354;2022-07-24T13:34:36;4.25;;;2.80;;
27375;SDS011;14844;51.302;6.354;2022-07-24T13:37:06;6.18;;;3.10;;
27375;SDS011;14844;51.302;6.354;2022-07-24T13:39:31;5.93;;;2.70;;
27375;SDS011;14844;51.302;6.354;2022-07-24T13:41:58;5.78;;;2.83;;
27375;SDS011;14844;51.302;6.354;2022-07-24T13:44:28;5.18;;;2.92;;
27375;SDS011;14844;51.302;6.354;2022-07-24T13:46:56;5.30;;;2.67;;
27375;SDS011;14844;51.302;6.354;2022-07-24T13:49:22;3.88;;;2.75;;
27375;SDS011;14844;51.302;6.354;2022-07-24T13:51:48;7.18;;;2.70;;
27375;SDS011;14844;51.302;6.354;2022-07-24T13:54:15;6.57;;;2.80;;
27375;SDS011;14844;51.302;6.354;2022-07-24T13:56:41;5.43;;;2.75;;
27375;SDS011;14844;51.302;6.354;2022-07-24T13:59:12;4.90;;;2.58;;
27375;SDS011;14844;51.302;6.354;2022-07-24T14:01:39;3.88;;;2.47;;
27375;SDS011;14844;51.302;6.354;2022-07-24T14:04:06;3.80;;;2.55;;
27375;SDS011;14844;51.302;6.354;2022-07-24T14:06:38;4.90;;;2.67;;
27375;SDS011;14844;51.302;6.354;2022-07-24T14:09:04;5.63;;;2.53;;
27375;SDS011;14844;51.302;6.354;2022-07-24T14:14:08;4.55;;;2.30;;
27375;SDS011;14844;51.302;6.354;2022-07-24T14:16:34;6.65;;;2.50;;
27375;SDS011;14844;51.302;6.354;2022-07-24T14:19:02;6.88;;;2.95;;
27375;SDS011;14844;51.302;6.354;2022-07-24T14:21:27;3.88;;;2.42;;
27375;SDS011;14844;51.302;6.354;2022-07-24T14:23:53;4.10;;;2.92;;
27375;SDS011;14844;51.302;6.354;2022-07-24T14:26:21;4.13;;;2.50;;
27375;SDS011;14844;51.302;6.354;2022-07-24T14:28:47;5.18;;;2.92;;
27375;SDS011;14844;51.302;6.354;2022-07-24T14:31:12;7.82;;;3.00;;
27375;SDS011;14844;51.302;6.354;2022-07-24T14:33:39;5.28;;;2.65;;
27375;SDS011;14844;51.302;6.354;2022-07-24T14:36:05;7.95;;;2.88;;
27375;SDS011;14844;51.302;6.354;2022-07-24T14:38:33;8.93;;;2.60;;
27375;SDS011;14844;51.302;6.354;2022-07-24T14:40:59;3.83;;;2.40;;
27375;SDS011;14844;51.302;6.354;2022-07-24T14:43:27;4.10;;;2.30;;
27375;SDS011;14844;51.302;6.354;2022-07-24T14:45:57;5.55;;;2.30;;
27375;SDS011;14844;51.302;6.354;2022-07-24T14:48:24;4.45;;;2.25;;
27375;SDS011;14844;51.302;6.354;2022-07-24T14:50:50;5.13;;;2.17;;
27375;SDS011;14844;51.302;6.354;2022-07-24T14:53:16;3.85;;;2.30;;
27375;SDS011;14844;51.302;6.354;2022-07-24T14:55:44;3.72;;;2.50;;
27375;SDS011;14844;51.302;6.354;2022-07-24T14:58:11;5.38;;;2.55;;
27375;SDS011;14844;51.302;6.354;2022-07-24T15:00:37;4.68;;;2.30;;
27375;SDS011;14844;51.302;6.354;2022-07-24T15:03:03;6.60;;;2.40;;
27375;SDS011;14844;51.302;6.354;2022-07-24T15:05:32;7.63;;;2.55;;
27375;SDS011;14844;51.302;6.354;2022-07-24T15:07:58;4.43;;;2.28;;
27375;SDS011;14844;51.302;6.354;2022-07-24T15:10:23;5.00;;;2.97;;
27375;SDS011;14844;51.302;6.354;2022-07-24T15:12:49;5.68;;;2.10;;
27375;SDS011;14844;51.302;6.354;2022-07-24T15:15:15;5.22;;;2.38;;
27375;SDS011;14844;51.302;6.354;2022-07-24T15:17:44;3.63;;;2.17;;
27375;SDS011;14844;51.302;6.354;2022-07-24T15:20:10;3.72;;;2.40;;
27375;SDS011;14844;51.302;6.354;2022-07-24T15:22:44;5.35;;;2.42;;
27375;SDS011;14844;51.302;6.354;2022-07-24T15:25:09;5.50;;;2.38;;
27375;SDS011;14844;51.302;6.354;2022-07-24T15:27:35;5.70;;;2.80;;
27375;SDS011;14844;51.302;6.354;2022-07-24T15:30:03;3.03;;;2.17;;
27375;SDS011;14844;51.302;6.354;2022-07-24T15:32:50;3.45;;;2.30;;
27375;SDS011;14844;51.302;6.354;2022-07-24T15:35:18;3.33;;;2.33;;
27375;SDS011;14844;51.302;6.354;2022-07-24T15:37:44;6.75;;;2.40;;
27375;SDS011;14844;51.302;6.354;2022-07-24T15:40:12;4.28;;;2.47;;
27375;SDS011;14844;51.302;6.354;2022-07-24T15:42:39;9.07;;;2.70;;
27375;SDS011;14844;51.302;6.354;2022-07-24T15:45:05;7.22;;;3.13;;
27375;SDS011;14844;51.302;6.354;2022-07-24T15:47:31;6.70;;;2.30;;
27375;SDS011;14844;51.302;6.354;2022-07-24T15:49:57;4.07;;;2.35;;
27375;SDS011;14844;51.302;6.354;2022-07-24T15:52:22;4.75;;;2.35;;
27375;SDS011;14844;51.302;6.354;2022-07-24T15:54:51;5.78;;;2.30;;
27375;SDS011;14844;51.302;6.354;2022-07-24T15:57:17;7.47;;;2.67;;
27375;SDS011;14844;51.302;6.354;2022-07-24T15:59:43;7.05;;;2.65;;
27375;SDS011;14844;51.302;6.354;2022-07-24T16:02:08;4.68;;;2.50;;
27375;SDS011;14844;51.302;6.354;2022-07-24T16:04:34;4.28;;;2.10;;
27375;SDS011;14844;51.302;6.354;2022-07-24T16:07:02;5.80;;;2.25;;
27375;SDS011;14844;51.302;6.354;2022-07-24T16:09:28;3.97;;;2.40;;
27375;SDS011;14844;51.302;6.354;2022-07-24T16:11:54;4.68;;;2.10;;
27375;SDS011;14844;51.302;6.354;2022-07-24T16:14:20;5.13;;;2.00;;
27375;SDS011;14844;51.302;6.354;2022-07-24T16:16:45;4.47;;;2.28;;
27375;SDS011;14844;51.302;6.354;2022-07-24T16:19:14;4.32;;;2.10;;
27375;SDS011;14844;51.302;6.354;2022-07-24T16:21:42;4.20;;;2.13;;
27375;SDS011;14844;51.302;6.354;2022-07-24T16:24:37;3.40;;;2.40;;
27375;SDS011;14844;51.302;6.354;2022-07-24T16:27:03;3.50;;;2.50;;
27375;SDS011;14844;51.302;6.354;2022-07-24T16:29:29;6.03;;;2.20;;
27375;SDS011;14844;51.302;6.354;2022-07-24T16:31:57;5.75;;;2.50;;
27375;SDS011;14844;51.302;6.354;2022-07-24T16:34:27;3.47;;;2.60;;
27375;SDS011;14844;51.302;6.354;2022-07-24T16:36:53;7.07;;;2.55;;
27375;SDS011;14844;51.302;6.354;2022-07-24T16:39:19;5.28;;;2.45;;
27375;SDS011;14844;51.302;6.354;2022-07-24T16:41:44;4.20;;;2.40;;
27375;SDS011;14844;51.302;6.354;2022-07-24T16:44:10;5.10;;;2.67;;
27375;SDS011;14844;51.302;6.354;2022-07-24T16:46:36;3.63;;;2.05;;
27375;SDS011;14844;51.302;6.354;2022-07-24T16:49:07;5.18;;;2.38;;
27375;SDS011;14844;51.302;6.354;2022-07-24T16:51:35;4.13;;;2.40;;
27375;SDS011;14844;51.302;6.354;2022-07-24T16:54:06;6.45;;;2.58;;
27375;SDS011;14844;51.302;6.354;2022-07-24T16:56:34;4.32;;;2.40;;
27375;SDS011;14844;51.302;6.354;2022-07-24T16:59:00;2.70;;;2.15;;
27375;SDS011;14844;51.302;6.354;2022-07-24T17:01:26;4.50;;;2.50;;
27375;SDS011;14844;51.302;6.354;2022-07-24T17:03:52;4.88;;;2.60;;
27375;SDS011;14844;51.302;6.354;2022-07-24T17:06:26;6.63;;;2.63;;
27375;SDS011;14844;51.302;6.354;2022-07-24T17:08:58;4.03;;;2.20;;
27375;SDS011;14844;51.302;6.354;2022-07-24T17:11:25;5.55;;;2.60;;
27375;SDS011;14844;51.302;6.354;2022-07-24T17:13:51;5.00;;;2.65;;
27375;SDS011;14844;51.302;6.354;2022-07-24T17:16:17;4.65;;;2.50;;
27375;SDS011;14844;51.302;6.354;2022-07-24T17:18:43;4.38;;;2.60;;
27375;SDS011;14844;51.302;6.354;2022-07-24T17:21:09;6.47;;;2.38;;
27375;SDS011;14844;51.302;6.354;2022-07-24T17:23:35;7.82;;;2.60;;
27375;SDS011;14844;51.302;6.354;2022-07-24T17:26:06;3.97;;;2.70;;
27375;SDS011;14844;51.302;6.354;2022-07-24T17:28:35;6.47;;;2.50;;
27375;SDS011;14844;51.302;6.354;2022-07-24T17:31:01;4.05;;;2.80;;
27375;SDS011;14844;51.302;6.354;2022-07-24T17:33:28;3.75;;;2.50;;
27375;SDS011;14844;51.302;6.354;2022-07-24T17:35:56;4.18;;;2.40;;
27375;SDS011;14844;51.302;6.354;2022-07-24T17:38:30;8.65;;;3.00;;
27375;SDS011;14844;51.302;6.354;2022-07-24T17:41:04;4.47;;;2.67;;
27375;SDS011;14844;51.302;6.354;2022-07-24T17:43:33;3.33;;;2.58;;
27375;SDS011;14844;51.302;6.354;2022-07-24T17:45:58;7.20;;;2.88;;
27375;SDS011;14844;51.302;6.354;2022-07-24T17:48:31;4.57;;;2.47;;
